sensor_id;sensor_type;location;lat;lon;timestamp;P1;durP1;ratioP1;P2;durP2;ratioP2
62419;SDS011;48460;51.616;5.426;2023-07-20T00:02:22;11.20;;;7.20;;
62419;SDS011;48460;51.616;5.426;2023-07-20T00:04:48;13.50;;;7.03;;
62419;SDS011;48460;51.616;5.426;2023-07-20T00:07:13;13.43;;;6.75;;
62419;SDS011;48460;51.616;5.426;2023-07-20T00:09:39;13.95;;;6.63;;
62419;SDS011;48460;51.616;5.426;2023-07-20T00:12:04;12.70;;;7.18;;
62419;SDS011;48460;51.616;5.426;2023-07-20T00:14:30;14.00;;;7.25;;
62419;SDS011;48460;51.616;5.426;2023-07-20T00:16:57;13.82;;;7.20;;
62419;SDS011;48460;51.616;5.426;2023-07-20T00:19:25;11.15;;;7.10;;
62419;SDS011;48460;51.616;5.426;2023-07-20T00:21:52;14.10;;;7.30;;
62419;SDS011;48460;51.616;5.426;2023-07-20T00:24:21;10.75;;;6.88;;
62419;SDS011;48460;51.616;5.426;2023-07-20T00:26:47;14.18;;;7.55;;
62419;SDS011;48460;51.616;5.426;2023-07-20T00:29:12;10.85;;;7.80;;
62419;SDS011;48460;51.616;5.426;2023-07-20T00:31:37;12.68;;;7.28;;
62419;SDS011;48460;51.616;5.426;2023-07-20T00:34:03;14.07;;;7.82;;
62419;SDS011;48460;51.616;5.426;2023-07-20T00:36:29;17.35;;;8.10;;
62419;SDS011;48460;51.616;5.426;2023-07-20T00:38:55;14.00;;;8.23;;
62419;SDS011;48460;51.616;5.426;2023-07-20T00:41:21;17.15;;;7.50;;
62419;SDS011;48460;51.616;5.426;2023-07-20T00:43:46;14.63;;;7.95;;
62419;SDS011;48460;51.616;5.426;2023-07-20T00:46:12;13.52;;;7.53;;
62419;SDS011;48460;51.616;5.426;2023-07-20T00:48:38;15.90;;;7.57;;
62419;SDS011;48460;51.616;5.426;2023-07-20T00:51:07;15.85;;;7.90;;
62419;SDS011;48460;51.616;5.426;2023-07-20T00:53:33;15.13;;;7.93;;
62419;SDS011;48460;51.616;5.426;2023-07-20T00:55:59;14.02;;;8.05;;
62419;SDS011;48460;51.616;5.426;2023-07-20T00:58:24;15.52;;;7.75;;
62419;SDS011;48460;51.616;5.426;2023-07-20T01:00:50;15.95;;;8.25;;
62419;SDS011;48460;51.616;5.426;2023-07-20T01:03:18;16.05;;;7.80;;
62419;SDS011;48460;51.616;5.426;2023-07-20T01:06:02;15.23;;;8.35;;
62419;SDS011;48460;51.616;5.426;2023-07-20T01:08:49;12.80;;;8.07;;
62419;SDS011;48460;51.616;5.426;2023-07-20T01:11:43;15.60;;;8.40;;
62419;SDS011;48460;51.616;5.426;2023-07-20T01:14:28;14.50;;;7.78;;
62419;SDS011;48460;51.616;5.426;2023-07-20T01:16:57;12.80;;;7.78;;
62419;SDS011;48460;51.616;5.426;2023-07-20T01:19:23;13.80;;;7.97;;
62419;SDS011;48460;51.616;5.426;2023-07-20T01:33:11;15.25;;;8.68;;
62419;SDS011;48460;51.616;5.426;2023-07-20T01:35:38;15.05;;;8.52;;
62419;SDS011;48460;51.616;5.426;2023-07-20T01:38:06;15.20;;;9.10;;
62419;SDS011;48460;51.616;5.426;2023-07-20T01:40:33;13.63;;;8.18;;
62419;SDS011;48460;51.616;5.426;2023-07-20T01:42:59;13.57;;;8.45;;
62419;SDS011;48460;51.616;5.426;2023-07-20T01:45:25;18.65;;;8.85;;
62419;SDS011;48460;51.616;5.426;2023-07-20T01:47:53;17.92;;;11.07;;
62419;SDS011;48460;51.616;5.426;2023-07-20T01:50:19;15.45;;;10.15;;
62419;SDS011;48460;51.616;5.426;2023-07-20T01:52:44;19.92;;;11.32;;
62419;SDS011;48460;51.616;5.426;2023-07-20T01:55:10;15.95;;;11.45;;
62419;SDS011;48460;51.616;5.426;2023-07-20T01:57:35;20.15;;;11.50;;
62419;SDS011;48460;51.616;5.426;2023-07-20T02:00:01;20.13;;;11.05;;
62419;SDS011;48460;51.616;5.426;2023-07-20T02:02:27;20.67;;;11.65;;
62419;SDS011;48460;51.616;5.426;2023-07-20T02:05:01;16.85;;;11.57;;
62419;SDS011;48460;51.616;5.426;2023-07-20T02:07:27;18.90;;;11.35;;
62419;SDS011;48460;51.616;5.426;2023-07-20T02:09:53;18.10;;;11.68;;
62419;SDS011;48460;51.616;5.426;2023-07-20T02:12:19;16.77;;;11.77;;
62419;SDS011;48460;51.616;5.426;2023-07-20T02:14:47;17.70;;;12.35;;
62419;SDS011;48460;51.616;5.426;2023-07-20T02:17:13;20.80;;;12.40;;
62419;SDS011;48460;51.616;5.426;2023-07-20T02:19:40;16.20;;;11.77;;
62419;SDS011;48460;51.616;5.426;2023-07-20T02:22:06;22.42;;;12.50;;
62419;SDS011;48460;51.616;5.426;2023-07-20T02:24:32;18.63;;;11.15;;
62419;SDS011;48460;51.616;5.426;2023-07-20T02:26:58;18.25;;;12.43;;
62419;SDS011;48460;51.616;5.426;2023-07-20T02:29:24;18.48;;;12.50;;
62419;SDS011;48460;51.616;5.426;2023-07-20T02:31:49;17.73;;;12.05;;
62419;SDS011;48460;51.616;5.426;2023-07-20T02:34:15;17.33;;;12.40;;
62419;SDS011;48460;51.616;5.426;2023-07-20T02:36:40;19.60;;;12.35;;
62419;SDS011;48460;51.616;5.426;2023-07-20T02:39:07;17.50;;;12.52;;
62419;SDS011;48460;51.616;5.426;2023-07-20T02:41:35;20.88;;;11.95;;
62419;SDS011;48460;51.616;5.426;2023-07-20T02:44:01;20.33;;;11.85;;
62419;SDS011;48460;51.616;5.426;2023-07-20T02:46:28;17.67;;;11.80;;
62419;SDS011;48460;51.616;5.426;2023-07-20T02:48:55;18.13;;;11.25;;
62419;SDS011;48460;51.616;5.426;2023-07-20T02:51:22;16.75;;;10.95;;
62419;SDS011;48460;51.616;5.426;2023-07-20T02:56:17;14.50;;;8.30;;
62419;SDS011;48460;51.616;5.426;2023-07-20T02:58:43;14.98;;;8.57;;
62419;SDS011;48460;51.616;5.426;2023-07-20T03:01:09;13.20;;;8.40;;
62419;SDS011;48460;51.616;5.426;2023-07-20T03:03:36;13.50;;;8.85;;
62419;SDS011;48460;51.616;5.426;2023-07-20T03:06:04;12.48;;;8.93;;
62419;SDS011;48460;51.616;5.426;2023-07-20T03:08:30;14.20;;;9.23;;
62419;SDS011;48460;51.616;5.426;2023-07-20T03:10:55;14.30;;;9.20;;
62419;SDS011;48460;51.616;5.426;2023-07-20T03:13:23;16.05;;;9.27;;
62419;SDS011;48460;51.616;5.426;2023-07-20T03:15:49;14.77;;;9.60;;
62419;SDS011;48460;51.616;5.426;2023-07-20T03:18:15;14.27;;;9.85;;
62419;SDS011;48460;51.616;5.426;2023-07-20T03:20:42;17.10;;;10.00;;
62419;SDS011;48460;51.616;5.426;2023-07-20T03:23:08;16.10;;;10.45;;
62419;SDS011;48460;51.616;5.426;2023-07-20T03:25:34;16.70;;;9.45;;
62419;SDS011;48460;51.616;5.426;2023-07-20T03:28:02;15.13;;;10.15;;
62419;SDS011;48460;51.616;5.426;2023-07-20T03:30:30;18.15;;;10.50;;
62419;SDS011;48460;51.616;5.426;2023-07-20T03:33:02;13.85;;;10.68;;
62419;SDS011;48460;51.616;5.426;2023-07-20T03:35:28;18.80;;;10.65;;
62419;SDS011;48460;51.616;5.426;2023-07-20T03:37:56;15.80;;;11.45;;
62419;SDS011;48460;51.616;5.426;2023-07-20T03:40:24;16.70;;;10.93;;
62419;SDS011;48460;51.616;5.426;2023-07-20T03:42:52;18.45;;;11.07;;
62419;SDS011;48460;51.616;5.426;2023-07-20T03:45:17;19.05;;;11.77;;
62419;SDS011;48460;51.616;5.426;2023-07-20T03:47:43;14.45;;;11.20;;
62419;SDS011;48460;51.616;5.426;2023-07-20T03:50:09;15.98;;;10.95;;
62419;SDS011;48460;51.616;5.426;2023-07-20T03:52:35;14.93;;;11.00;;
62419;SDS011;48460;51.616;5.426;2023-07-20T03:55:01;16.67;;;10.80;;
62419;SDS011;48460;51.616;5.426;2023-07-20T03:57:26;12.50;;;9.80;;
62419;SDS011;48460;51.616;5.426;2023-07-20T03:59:52;14.45;;;10.13;;
62419;SDS011;48460;51.616;5.426;2023-07-20T04:02:20;15.13;;;10.00;;
62419;SDS011;48460;51.616;5.426;2023-07-20T04:04:45;12.18;;;9.32;;
62419;SDS011;48460;51.616;5.426;2023-07-20T04:07:11;11.63;;;9.13;;
62419;SDS011;48460;51.616;5.426;2023-07-20T04:09:36;14.43;;;9.15;;
62419;SDS011;48460;51.616;5.426;2023-07-20T04:12:02;12.80;;;9.02;;
62419;SDS011;48460;51.616;5.426;2023-07-20T04:14:28;15.68;;;9.05;;
62419;SDS011;48460;51.616;5.426;2023-07-20T04:16:53;12.68;;;9.15;;
62419;SDS011;48460;51.616;5.426;2023-07-20T04:19:19;16.42;;;10.13;;
62419;SDS011;48460;51.616;5.426;2023-07-20T04:21:44;14.25;;;9.35;;
62419;SDS011;48460;51.616;5.426;2023-07-20T04:24:09;10.63;;;8.38;;
62419;SDS011;48460;51.616;5.426;2023-07-20T04:26:35;12.23;;;8.93;;
62419;SDS011;48460;51.616;5.426;2023-07-20T04:29:01;10.98;;;8.75;;
62419;SDS011;48460;51.616;5.426;2023-07-20T04:31:27;11.05;;;8.00;;
62419;SDS011;48460;51.616;5.426;2023-07-20T04:34:03;11.07;;;8.30;;
62419;SDS011;48460;51.616;5.426;2023-07-20T04:36:28;13.77;;;8.07;;
62419;SDS011;48460;51.616;5.426;2023-07-20T04:38:56;11.90;;;8.00;;
62419;SDS011;48460;51.616;5.426;2023-07-20T04:41:26;10.68;;;7.22;;
62419;SDS011;48460;51.616;5.426;2023-07-20T04:43:54;11.90;;;7.80;;
62419;SDS011;48460;51.616;5.426;2023-07-20T04:46:20;10.95;;;8.23;;
62419;SDS011;48460;51.616;5.426;2023-07-20T04:48:46;12.23;;;8.65;;
62419;SDS011;48460;51.616;5.426;2023-07-20T04:51:14;14.23;;;9.65;;
62419;SDS011;48460;51.616;5.426;2023-07-20T04:53:45;14.07;;;9.82;;
62419;SDS011;48460;51.616;5.426;2023-07-20T04:56:12;13.52;;;10.57;;
62419;SDS011;48460;51.616;5.426;2023-07-20T04:58:37;16.13;;;10.73;;
62419;SDS011;48460;51.616;5.426;2023-07-20T05:01:05;16.45;;;11.65;;
62419;SDS011;48460;51.616;5.426;2023-07-20T05:03:31;16.83;;;11.80;;
62419;SDS011;48460;51.616;5.426;2023-07-20T05:05:59;21.25;;;12.98;;
62419;SDS011;48460;51.616;5.426;2023-07-20T05:08:24;17.65;;;12.35;;
62419;SDS011;48460;51.616;5.426;2023-07-20T05:10:50;16.55;;;12.10;;
62419;SDS011;48460;51.616;5.426;2023-07-20T05:13:18;17.48;;;11.82;;
62419;SDS011;48460;51.616;5.426;2023-07-20T05:15:52;17.90;;;12.25;;
62419;SDS011;48460;51.616;5.426;2023-07-20T05:18:20;21.02;;;12.20;;
62419;SDS011;48460;51.616;5.426;2023-07-20T05:20:46;15.90;;;12.10;;
62419;SDS011;48460;51.616;5.426;2023-07-20T05:23:12;18.13;;;13.15;;
62419;SDS011;48460;51.616;5.426;2023-07-20T05:25:45;19.80;;;13.00;;
62419;SDS011;48460;51.616;5.426;2023-07-20T05:28:13;16.83;;;12.80;;
62419;SDS011;48460;51.616;5.426;2023-07-20T05:30:41;16.70;;;12.33;;
62419;SDS011;48460;51.616;5.426;2023-07-20T05:33:07;19.52;;;12.98;;
62419;SDS011;48460;51.616;5.426;2023-07-20T05:35:32;16.95;;;11.77;;
62419;SDS011;48460;51.616;5.426;2023-07-20T05:37:59;15.13;;;12.05;;
62419;SDS011;48460;51.616;5.426;2023-07-20T05:40:25;18.58;;;12.30;;
62419;SDS011;48460;51.616;5.426;2023-07-20T05:42:50;15.80;;;12.75;;
62419;SDS011;48460;51.616;5.426;2023-07-20T05:45:19;20.25;;;13.15;;
62419;SDS011;48460;51.616;5.426;2023-07-20T05:47:45;17.08;;;12.95;;
62419;SDS011;48460;51.616;5.426;2023-07-20T05:50:11;16.95;;;12.30;;
62419;SDS011;48460;51.616;5.426;2023-07-20T05:52:37;19.77;;;12.52;;
62419;SDS011;48460;51.616;5.426;2023-07-20T05:55:04;18.70;;;12.40;;
62419;SDS011;48460;51.616;5.426;2023-07-20T05:57:33;18.60;;;12.10;;
62419;SDS011;48460;51.616;5.426;2023-07-20T05:59:59;20.23;;;13.00;;
62419;SDS011;48460;51.616;5.426;2023-07-20T06:02:24;15.40;;;12.25;;
62419;SDS011;48460;51.616;5.426;2023-07-20T06:04:51;15.77;;;11.95;;
62419;SDS011;48460;51.616;5.426;2023-07-20T06:07:20;16.27;;;11.95;;
62419;SDS011;48460;51.616;5.426;2023-07-20T06:10:04;16.87;;;11.87;;
62419;SDS011;48460;51.616;5.426;2023-07-20T06:12:33;16.40;;;11.65;;
62419;SDS011;48460;51.616;5.426;2023-07-20T06:15:04;15.53;;;11.87;;
62419;SDS011;48460;51.616;5.426;2023-07-20T06:17:35;19.45;;;11.52;;
62419;SDS011;48460;51.616;5.426;2023-07-20T06:20:04;15.80;;;10.15;;
62419;SDS011;48460;51.616;5.426;2023-07-20T06:22:33;13.77;;;9.88;;
62419;SDS011;48460;51.616;5.426;2023-07-20T06:24:58;14.15;;;9.38;;
62419;SDS011;48460;51.616;5.426;2023-07-20T06:27:24;10.98;;;8.98;;
62419;SDS011;48460;51.616;5.426;2023-07-20T06:29:49;13.88;;;9.63;;
62419;SDS011;48460;51.616;5.426;2023-07-20T06:32:15;15.00;;;8.77;;
62419;SDS011;48460;51.616;5.426;2023-07-20T06:34:43;11.98;;;8.68;;
62419;SDS011;48460;51.616;5.426;2023-07-20T06:37:18;15.68;;;9.02;;
62419;SDS011;48460;51.616;5.426;2023-07-20T06:39:46;10.90;;;9.10;;
62419;SDS011;48460;51.616;5.426;2023-07-20T06:42:15;14.02;;;9.57;;
62419;SDS011;48460;51.616;5.426;2023-07-20T06:44:42;12.77;;;9.00;;
62419;SDS011;48460;51.616;5.426;2023-07-20T06:47:13;13.57;;;9.27;;
62419;SDS011;48460;51.616;5.426;2023-07-20T06:49:39;12.02;;;8.57;;
62419;SDS011;48460;51.616;5.426;2023-07-20T06:52:04;13.82;;;9.15;;
62419;SDS011;48460;51.616;5.426;2023-07-20T06:54:33;12.98;;;8.70;;
62419;SDS011;48460;51.616;5.426;2023-07-20T06:57:04;12.65;;;8.25;;
62419;SDS011;48460;51.616;5.426;2023-07-20T06:59:30;11.05;;;8.07;;
62419;SDS011;48460;51.616;5.426;2023-07-20T07:01:57;10.45;;;6.90;;
62419;SDS011;48460;51.616;5.426;2023-07-20T07:04:22;10.75;;;7.07;;
62419;SDS011;48460;51.616;5.426;2023-07-20T07:06:50;8.45;;;6.18;;
62419;SDS011;48460;51.616;5.426;2023-07-20T07:09:16;9.52;;;6.88;;
62419;SDS011;48460;51.616;5.426;2023-07-20T07:11:41;8.93;;;6.57;;
62419;SDS011;48460;51.616;5.426;2023-07-20T07:14:07;8.48;;;6.30;;
62419;SDS011;48460;51.616;5.426;2023-07-20T07:16:37;9.10;;;5.10;;
62419;SDS011;48460;51.616;5.426;2023-07-20T07:19:04;5.93;;;3.92;;
62419;SDS011;48460;51.616;5.426;2023-07-20T07:21:30;6.00;;;3.90;;
62419;SDS011;48460;51.616;5.426;2023-07-20T07:24:01;7.40;;;4.13;;
62419;SDS011;48460;51.616;5.426;2023-07-20T07:26:29;8.47;;;4.80;;
62419;SDS011;48460;51.616;5.426;2023-07-20T07:28:57;9.18;;;5.07;;
62419;SDS011;48460;51.616;5.426;2023-07-20T07:31:24;7.53;;;5.15;;
62419;SDS011;48460;51.616;5.426;2023-07-20T07:33:50;5.35;;;3.63;;
62419;SDS011;48460;51.616;5.426;2023-07-20T07:36:18;3.85;;;2.58;;
62419;SDS011;48460;51.616;5.426;2023-07-20T07:38:54;6.97;;;3.00;;
62419;SDS011;48460;51.616;5.426;2023-07-20T07:41:20;5.68;;;2.78;;
62419;SDS011;48460;51.616;5.426;2023-07-20T07:43:46;6.03;;;2.83;;
62419;SDS011;48460;51.616;5.426;2023-07-20T07:46:13;4.75;;;2.70;;
62419;SDS011;48460;51.616;5.426;2023-07-20T07:48:42;4.57;;;3.05;;
62419;SDS011;48460;51.616;5.426;2023-07-20T07:51:10;4.28;;;3.03;;
62419;SDS011;48460;51.616;5.426;2023-07-20T07:53:38;6.78;;;3.22;;
62419;SDS011;48460;51.616;5.426;2023-07-20T07:56:06;4.97;;;3.42;;
62419;SDS011;48460;51.616;5.426;2023-07-20T07:58:35;6.45;;;3.28;;
62419;SDS011;48460;51.616;5.426;2023-07-20T08:01:04;4.40;;;3.20;;
62419;SDS011;48460;51.616;5.426;2023-07-20T08:03:33;6.03;;;3.55;;
62419;SDS011;48460;51.616;5.426;2023-07-20T08:05:58;4.40;;;2.90;;
62419;SDS011;48460;51.616;5.426;2023-07-20T08:08:25;6.03;;;2.83;;
62419;SDS011;48460;51.616;5.426;2023-07-20T08:10:55;6.28;;;3.40;;
62419;SDS011;48460;51.616;5.426;2023-07-20T08:13:30;5.70;;;3.33;;
62419;SDS011;48460;51.616;5.426;2023-07-20T08:16:00;4.70;;;3.33;;
62419;SDS011;48460;51.616;5.426;2023-07-20T08:18:27;4.95;;;3.60;;
62419;SDS011;48460;51.616;5.426;2023-07-20T08:20:53;7.55;;;3.60;;
62419;SDS011;48460;51.616;5.426;2023-07-20T08:23:19;4.85;;;3.40;;
62419;SDS011;48460;51.616;5.426;2023-07-20T08:25:52;4.82;;;3.20;;
62419;SDS011;48460;51.616;5.426;2023-07-20T08:28:25;5.20;;;3.30;;
62419;SDS011;48460;51.616;5.426;2023-07-20T08:30:59;4.75;;;2.70;;
62419;SDS011;48460;51.616;5.426;2023-07-20T08:33:24;4.13;;;2.90;;
62419;SDS011;48460;51.616;5.426;2023-07-20T08:35:52;6.07;;;3.22;;
62419;SDS011;48460;51.616;5.426;2023-07-20T08:38:20;3.97;;;2.55;;
62419;SDS011;48460;51.616;5.426;2023-07-20T08:40:48;5.80;;;3.28;;
62419;SDS011;48460;51.616;5.426;2023-07-20T08:43:16;4.43;;;2.50;;
62419;SDS011;48460;51.616;5.426;2023-07-20T08:45:41;3.13;;;2.50;;
62419;SDS011;48460;51.616;5.426;2023-07-20T08:48:10;3.60;;;2.45;;
62419;SDS011;48460;51.616;5.426;2023-07-20T08:50:38;5.53;;;2.65;;
62419;SDS011;48460;51.616;5.426;2023-07-20T08:53:04;4.47;;;2.58;;
62419;SDS011;48460;51.616;5.426;2023-07-20T08:55:32;4.47;;;2.67;;
62419;SDS011;48460;51.616;5.426;2023-07-20T08:58:04;6.00;;;2.70;;
62419;SDS011;48460;51.616;5.426;2023-07-20T09:00:33;3.17;;;2.30;;
62419;SDS011;48460;51.616;5.426;2023-07-20T09:03:01;5.40;;;2.50;;
62419;SDS011;48460;51.616;5.426;2023-07-20T09:05:40;4.60;;;2.50;;
62419;SDS011;48460;51.616;5.426;2023-07-20T09:08:08;3.65;;;2.20;;
62419;SDS011;48460;51.616;5.426;2023-07-20T09:10:34;4.90;;;2.60;;
62419;SDS011;48460;51.616;5.426;2023-07-20T09:13:02;3.28;;;2.40;;
62419;SDS011;48460;51.616;5.426;2023-07-20T09:15:32;6.25;;;2.47;;
62419;SDS011;48460;51.616;5.426;2023-07-20T09:18:00;3.25;;;2.33;;
62419;SDS011;48460;51.616;5.426;2023-07-20T09:20:26;4.32;;;2.00;;
62419;SDS011;48460;51.616;5.426;2023-07-20T09:22:52;3.88;;;1.98;;
62419;SDS011;48460;51.616;5.426;2023-07-20T09:25:18;1.92;;;1.70;;
62419;SDS011;48460;51.616;5.426;2023-07-20T09:27:50;2.35;;;1.80;;
62419;SDS011;48460;51.616;5.426;2023-07-20T09:30:16;2.78;;;1.50;;
62419;SDS011;48460;51.616;5.426;2023-07-20T09:32:45;1.90;;;1.67;;
62419;SDS011;48460;51.616;5.426;2023-07-20T09:35:15;3.13;;;1.55;;
62419;SDS011;48460;51.616;5.426;2023-07-20T09:40:29;2.53;;;1.60;;
62419;SDS011;48460;51.616;5.426;2023-07-20T09:43:02;1.50;;;1.30;;
62419;SDS011;48460;51.616;5.426;2023-07-20T09:45:33;1.63;;;1.23;;
62419;SDS011;48460;51.616;5.426;2023-07-20T09:48:09;1.90;;;1.50;;
62419;SDS011;48460;51.616;5.426;2023-07-20T09:50:42;2.30;;;1.65;;
62419;SDS011;48460;51.616;5.426;2023-07-20T09:53:13;1.40;;;1.30;;
62419;SDS011;48460;51.616;5.426;2023-07-20T09:55:40;4.40;;;1.90;;
62419;SDS011;48460;51.616;5.426;2023-07-20T09:58:15;3.58;;;1.88;;
62419;SDS011;48460;51.616;5.426;2023-07-20T10:00:45;2.20;;;1.90;;
62419;SDS011;48460;51.616;5.426;2023-07-20T10:03:19;2.95;;;1.80;;
62419;SDS011;48460;51.616;5.426;2023-07-20T10:05:51;1.92;;;1.60;;
62419;SDS011;48460;51.616;5.426;2023-07-20T10:08:24;1.85;;;1.60;;
62419;SDS011;48460;51.616;5.426;2023-07-20T10:10:50;2.58;;;1.60;;
62419;SDS011;48460;51.616;5.426;2023-07-20T10:13:25;4.07;;;1.77;;
62419;SDS011;48460;51.616;5.426;2023-07-20T10:15:54;4.00;;;1.88;;
62419;SDS011;48460;51.616;5.426;2023-07-20T10:18:27;2.63;;;1.80;;
62419;SDS011;48460;51.616;5.426;2023-07-20T10:20:59;2.45;;;1.58;;
62419;SDS011;48460;51.616;5.426;2023-07-20T10:23:29;2.83;;;1.50;;
62419;SDS011;48460;51.616;5.426;2023-07-20T10:25:55;1.70;;;1.60;;
62419;SDS011;48460;51.616;5.426;2023-07-20T10:28:24;3.30;;;1.48;;
62419;SDS011;48460;51.616;5.426;2023-07-20T10:30:51;2.80;;;1.90;;
62419;SDS011;48460;51.616;5.426;2023-07-20T10:33:17;3.72;;;1.70;;
62419;SDS011;48460;51.616;5.426;2023-07-20T10:35:54;3.38;;;1.70;;
62419;SDS011;48460;51.616;5.426;2023-07-20T10:38:39;5.15;;;2.10;;
62419;SDS011;48460;51.616;5.426;2023-07-20T10:43:49;3.63;;;1.77;;
62419;SDS011;48460;51.616;5.426;2023-07-20T10:46:33;3.28;;;1.85;;
62419;SDS011;48460;51.616;5.426;2023-07-20T10:49:07;2.53;;;1.70;;
62419;SDS011;48460;51.616;5.426;2023-07-20T10:51:41;2.20;;;1.45;;
62419;SDS011;48460;51.616;5.426;2023-07-20T10:56:48;1.90;;;1.70;;
62419;SDS011;48460;51.616;5.426;2023-07-20T11:02:09;2.20;;;1.80;;
62419;SDS011;48460;51.616;5.426;2023-07-20T11:04:41;5.20;;;1.60;;
62419;SDS011;48460;51.616;5.426;2023-07-20T11:07:08;5.28;;;1.90;;
62419;SDS011;48460;51.616;5.426;2023-07-20T11:09:34;5.45;;;1.70;;
62419;SDS011;48460;51.616;5.426;2023-07-20T11:14:44;2.47;;;1.52;;
62419;SDS011;48460;51.616;5.426;2023-07-20T11:17:21;2.00;;;1.70;;
62419;SDS011;48460;51.616;5.426;2023-07-20T11:19:58;4.15;;;1.85;;
62419;SDS011;48460;51.616;5.426;2023-07-20T11:22:30;4.45;;;1.75;;
62419;SDS011;48460;51.616;5.426;2023-07-20T11:24:57;4.00;;;1.70;;
62419;SDS011;48460;51.616;5.426;2023-07-20T11:27:25;1.92;;;1.73;;
62419;SDS011;48460;51.616;5.426;2023-07-20T11:29:51;2.25;;;1.60;;
62419;SDS011;48460;51.616;5.426;2023-07-20T11:32:22;2.63;;;1.90;;
62419;SDS011;48460;51.616;5.426;2023-07-20T11:34:49;4.03;;;1.75;;
62419;SDS011;48460;51.616;5.426;2023-07-20T11:37:16;3.70;;;1.80;;
62419;SDS011;48460;51.616;5.426;2023-07-20T11:39:42;2.90;;;1.90;;
62419;SDS011;48460;51.616;5.426;2023-07-20T11:42:07;3.97;;;1.77;;
62419;SDS011;48460;51.616;5.426;2023-07-20T11:44:33;2.55;;;1.77;;
62419;SDS011;48460;51.616;5.426;2023-07-20T11:47:05;2.33;;;1.88;;
62419;SDS011;48460;51.616;5.426;2023-07-20T11:49:35;3.97;;;1.85;;
62419;SDS011;48460;51.616;5.426;2023-07-20T11:52:14;2.63;;;1.70;;
62419;SDS011;48460;51.616;5.426;2023-07-20T11:54:44;3.40;;;1.70;;
62419;SDS011;48460;51.616;5.426;2023-07-20T11:57:17;2.67;;;1.67;;
62419;SDS011;48460;51.616;5.426;2023-07-20T12:02:36;4.97;;;1.80;;
62419;SDS011;48460;51.616;5.426;2023-07-20T12:05:05;5.10;;;2.00;;
62419;SDS011;48460;51.616;5.426;2023-07-20T12:07:35;2.78;;;1.73;;
62419;SDS011;48460;51.616;5.426;2023-07-20T12:10:08;4.07;;;1.92;;
62419;SDS011;48460;51.616;5.426;2023-07-20T12:12:42;2.83;;;1.65;;
62419;SDS011;48460;51.616;5.426;2023-07-20T12:15:14;4.18;;;1.83;;
62419;SDS011;48460;51.616;5.426;2023-07-20T12:17:54;4.22;;;1.70;;
62419;SDS011;48460;51.616;5.426;2023-07-20T12:20:30;2.13;;;1.60;;
62419;SDS011;48460;51.616;5.426;2023-07-20T12:23:10;3.47;;;1.63;;
62419;SDS011;48460;51.616;5.426;2023-07-20T12:25:49;2.90;;;1.77;;
62419;SDS011;48460;51.616;5.426;2023-07-20T12:28:22;3.47;;;2.05;;
62419;SDS011;48460;51.616;5.426;2023-07-20T12:30:50;4.10;;;2.08;;
62419;SDS011;48460;51.616;5.426;2023-07-20T12:33:24;3.25;;;1.73;;
62419;SDS011;48460;51.616;5.426;2023-07-20T12:35:53;3.78;;;1.88;;
62419;SDS011;48460;51.616;5.426;2023-07-20T12:38:23;3.58;;;1.90;;
62419;SDS011;48460;51.616;5.426;2023-07-20T12:40:52;2.75;;;1.90;;
62419;SDS011;48460;51.616;5.426;2023-07-20T12:43:26;4.53;;;2.00;;
62419;SDS011;48460;51.616;5.426;2023-07-20T12:45:52;3.45;;;2.00;;
62419;SDS011;48460;51.616;5.426;2023-07-20T12:48:18;3.65;;;1.77;;
62419;SDS011;48460;51.616;5.426;2023-07-20T12:50:43;3.05;;;1.98;;
62419;SDS011;48460;51.616;5.426;2023-07-20T12:53:17;2.55;;;1.77;;
62419;SDS011;48460;51.616;5.426;2023-07-20T12:55:48;3.28;;;1.90;;
62419;SDS011;48460;51.616;5.426;2023-07-20T12:58:18;2.23;;;1.83;;
62419;SDS011;48460;51.616;5.426;2023-07-20T13:03:11;4.55;;;1.90;;
62419;SDS011;48460;51.616;5.426;2023-07-20T13:05:48;6.22;;;1.88;;
62419;SDS011;48460;51.616;5.426;2023-07-20T13:08:16;2.42;;;1.90;;
62419;SDS011;48460;51.616;5.426;2023-07-20T13:10:43;2.60;;;1.83;;
62419;SDS011;48460;51.616;5.426;2023-07-20T13:13:08;3.08;;;1.95;;
62419;SDS011;48460;51.616;5.426;2023-07-20T13:15:43;4.18;;;1.95;;
62419;SDS011;48460;51.616;5.426;2023-07-20T13:18:09;3.28;;;1.90;;
62419;SDS011;48460;51.616;5.426;2023-07-20T13:20:35;3.53;;;1.95;;
62419;SDS011;48460;51.616;5.426;2023-07-20T13:23:04;4.30;;;2.00;;
62419;SDS011;48460;51.616;5.426;2023-07-20T13:25:30;3.45;;;1.80;;
62419;SDS011;48460;51.616;5.426;2023-07-20T13:27:59;3.53;;;2.00;;
62419;SDS011;48460;51.616;5.426;2023-07-20T13:30:27;5.20;;;2.20;;
62419;SDS011;48460;51.616;5.426;2023-07-20T13:32:53;5.30;;;2.10;;
62419;SDS011;48460;51.616;5.426;2023-07-20T13:35:18;6.70;;;2.10;;
62419;SDS011;48460;51.616;5.426;2023-07-20T13:37:46;3.72;;;2.20;;
62419;SDS011;48460;51.616;5.426;2023-07-20T13:40:14;4.13;;;2.10;;
62419;SDS011;48460;51.616;5.426;2023-07-20T13:42:42;5.97;;;2.20;;
62419;SDS011;48460;51.616;5.426;2023-07-20T13:45:10;5.05;;;2.00;;
62419;SDS011;48460;51.616;5.426;2023-07-20T13:47:35;5.90;;;2.00;;
62419;SDS011;48460;51.616;5.426;2023-07-20T13:50:03;5.43;;;1.90;;
62419;SDS011;48460;51.616;5.426;2023-07-20T13:52:29;4.22;;;2.28;;
62419;SDS011;48460;51.616;5.426;2023-07-20T13:55:01;3.13;;;2.00;;
62419;SDS011;48460;51.616;5.426;2023-07-20T13:57:31;3.47;;;2.25;;
62419;SDS011;48460;51.616;5.426;2023-07-20T13:59:57;5.03;;;2.03;;
62419;SDS011;48460;51.616;5.426;2023-07-20T14:02:25;2.80;;;1.98;;
62419;SDS011;48460;51.616;5.426;2023-07-20T14:04:50;3.45;;;2.20;;
62419;SDS011;48460;51.616;5.426;2023-07-20T14:07:19;2.90;;;2.00;;
62419;SDS011;48460;51.616;5.426;2023-07-20T14:09:47;5.20;;;2.00;;
62419;SDS011;48460;51.616;5.426;2023-07-20T14:12:15;3.00;;;2.10;;
62419;SDS011;48460;51.616;5.426;2023-07-20T14:14:46;3.25;;;2.30;;
62419;SDS011;48460;51.616;5.426;2023-07-20T14:17:21;3.10;;;1.90;;
62419;SDS011;48460;51.616;5.426;2023-07-20T14:19:47;2.63;;;2.00;;
62419;SDS011;48460;51.616;5.426;2023-07-20T14:22:16;3.25;;;2.20;;
62419;SDS011;48460;51.616;5.426;2023-07-20T14:24:45;6.32;;;2.00;;
62419;SDS011;48460;51.616;5.426;2023-07-20T14:27:15;3.90;;;2.45;;
62419;SDS011;48460;51.616;5.426;2023-07-20T14:29:44;2.63;;;2.00;;
62419;SDS011;48460;51.616;5.426;2023-07-20T14:32:13;5.95;;;2.30;;
62419;SDS011;48460;51.616;5.426;2023-07-20T14:34:39;3.17;;;2.20;;
62419;SDS011;48460;51.616;5.426;2023-07-20T14:37:10;3.08;;;2.10;;
62419;SDS011;48460;51.616;5.426;2023-07-20T14:39:37;4.38;;;2.20;;
62419;SDS011;48460;51.616;5.426;2023-07-20T14:42:10;4.28;;;2.10;;
62419;SDS011;48460;51.616;5.426;2023-07-20T14:44:38;4.25;;;2.13;;
62419;SDS011;48460;51.616;5.426;2023-07-20T14:47:06;3.80;;;2.30;;
62419;SDS011;48460;51.616;5.426;2023-07-20T14:49:35;2.88;;;2.20;;
62419;SDS011;48460;51.616;5.426;2023-07-20T14:52:01;4.47;;;2.30;;
62419;SDS011;48460;51.616;5.426;2023-07-20T14:54:28;4.22;;;2.15;;
62419;SDS011;48460;51.616;5.426;2023-07-20T14:56:54;3.28;;;2.35;;
62419;SDS011;48460;51.616;5.426;2023-07-20T14:59:21;3.22;;;2.30;;
62419;SDS011;48460;51.616;5.426;2023-07-20T15:01:47;3.78;;;2.20;;
62419;SDS011;48460;51.616;5.426;2023-07-20T15:04:16;4.03;;;2.30;;
62419;SDS011;48460;51.616;5.426;2023-07-20T15:06:44;3.83;;;2.20;;
62419;SDS011;48460;51.616;5.426;2023-07-20T15:09:22;2.78;;;2.20;;
62419;SDS011;48460;51.616;5.426;2023-07-20T15:11:47;3.67;;;2.60;;
62419;SDS011;48460;51.616;5.426;2023-07-20T15:14:20;3.35;;;2.20;;
62419;SDS011;48460;51.616;5.426;2023-07-20T15:16:53;5.30;;;2.40;;
62419;SDS011;48460;51.616;5.426;2023-07-20T15:19:19;4.20;;;2.20;;